createdAt,value
2023-03-02T00:02:36.015Z,25.61
2023-03-02T00:06:35.970Z,25.61
2023-03-02T00:10:36.033Z,25.52
2023-03-02T00:14:35.977Z,25.54
2023-03-02T00:18:35.947Z,25.46
2023-03-02T00:22:35.973Z,25.48
2023-03-02T00:26:35.956Z,25.44
2023-03-02T00:30:35.950Z,25.44
2023-03-02T00:34:35.948Z,25.41
2023-03-02T00:38:35.958Z,25.42
2023-03-02T00:42:35.962Z,25.37
2023-03-02T00:46:36.187Z,25.34
2023-03-02T00:50:35.967Z,25.34
2023-03-02T00:54:35.960Z,25.31
2023-03-02T00:58:35.994Z,25.34
2023-03-02T01:02:36.266Z,25.28
2023-03-02T01:06:36.295Z,25.23
2023-03-02T01:10:36.581Z,25.22
2023-03-02T01:14:36.585Z,25.22
2023-03-02T01:18:36.748Z,25.24
2023-03-02T01:22:36.944Z,25.23
2023-03-02T01:26:37.169Z,25.20
2023-03-02T01:30:37.275Z,25.23
2023-03-02T01:34:37.313Z,25.19
2023-03-02T01:38:37.388Z,25.13
2023-03-02T01:42:37.367Z,25.15
2023-03-02T01:46:37.404Z,25.12
2023-03-02T01:50:37.431Z,25.16
2023-03-02T01:54:37.431Z,25.12
2023-03-02T01:58:37.449Z,25.05
2023-03-02T02:02:37.469Z,25.08
2023-03-02T02:06:37.515Z,25.04
2023-03-02T02:10:37.543Z,25.05
2023-03-02T02:14:37.557Z,25.05
2023-03-02T02:18:37.596Z,25.05
2023-03-02T02:22:37.601Z,25.02
2023-03-02T02:26:37.630Z,25.02
2023-03-02T02:30:37.622Z,24.98
2023-03-02T02:34:37.676Z,24.98
2023-03-02T02:38:37.677Z,24.97
2023-03-02T02:42:37.691Z,24.97
2023-03-02T02:46:37.737Z,24.97
2023-03-02T02:50:37.760Z,24.97
2023-03-02T02:54:37.798Z,24.94
2023-03-02T02:58:37.874Z,24.97
2023-03-02T03:02:37.942Z,24.90
2023-03-02T03:06:37.966Z,24.91
2023-03-02T03:10:38.000Z,24.94
2023-03-02T03:14:38.015Z,24.91
2023-03-02T03:18:38.083Z,24.93
2023-03-02T03:22:38.139Z,24.90
2023-03-02T03:26:38.205Z,24.93
2023-03-02T03:30:38.277Z,24.85
2023-03-02T03:34:38.316Z,24.86
2023-03-02T03:38:38.338Z,24.87
2023-03-02T03:42:38.474Z,24.84
2023-03-02T03:46:38.508Z,24.82
2023-03-02T03:50:38.588Z,24.81
2023-03-02T03:54:38.725Z,24.84
2023-03-02T03:58:38.777Z,24.79
2023-03-02T04:02:38.855Z,24.76
2023-03-02T04:06:38.855Z,24.80
2023-03-02T04:10:39.025Z,24.79
2023-03-02T04:14:39.000Z,24.78
2023-03-02T04:18:39.176Z,24.78
2023-03-02T04:22:39.309Z,24.76
2023-03-02T04:26:39.423Z,24.70
2023-03-02T04:30:39.496Z,24.71
2023-03-02T04:34:39.591Z,24.67
2023-03-02T04:38:39.664Z,24.73
2023-03-02T04:42:39.872Z,24.73
2023-03-02T04:46:39.953Z,24.73
2023-03-02T04:50:39.919Z,24.67
2023-03-02T04:54:39.958Z,24.65
2023-03-02T04:58:40.015Z,24.65
2023-03-02T05:02:40.146Z,24.64
2023-03-02T05:06:40.135Z,24.63
2023-03-02T05:10:40.171Z,24.64
2023-03-02T05:14:40.224Z,24.61
2023-03-02T05:18:40.280Z,24.60
2023-03-02T05:22:40.321Z,24.57
2023-03-02T05:26:40.389Z,24.57
2023-03-02T05:30:40.485Z,24.57
2023-03-02T05:34:40.509Z,24.60
2023-03-02T05:38:40.602Z,24.57
2023-03-02T05:42:40.631Z,24.58
2023-03-02T05:46:40.810Z,24.59
2023-03-02T05:50:40.843Z,24.59
2023-03-02T05:54:40.846Z,24.56
2023-03-02T05:58:40.945Z,24.47
2023-03-02T06:02:41.035Z,24.48
2023-03-02T06:06:41.041Z,24.46
2023-03-02T06:10:41.091Z,24.46
2023-03-02T06:14:41.106Z,24.38
2023-03-02T06:18:41.700Z,24.41
2023-03-02T06:22:41.227Z,24.34
2023-03-02T06:26:41.194Z,24.40
2023-03-02T06:30:41.198Z,24.33
2023-03-02T06:34:41.233Z,24.32
2023-03-02T06:38:41.206Z,24.43
2023-03-02T06:42:41.713Z,24.44
2023-03-02T06:46:41.207Z,24.73
2023-03-02T06:50:41.806Z,25.06
2023-03-02T06:54:41.720Z,25.74
2023-03-02T06:58:41.741Z,26.33
2023-03-02T07:02:41.726Z,26.62
2023-03-02T07:06:41.356Z,27.04
2023-03-02T07:10:41.695Z,27.25
2023-03-02T07:14:41.249Z,27.49
2023-03-02T07:18:41.212Z,27.88
2023-03-02T07:22:41.166Z,28.32
2023-03-02T07:26:41.177Z,28.63
2023-03-02T07:30:41.253Z,28.79
2023-03-02T07:34:41.068Z,29.04
2023-03-02T07:38:41.028Z,29.44
2023-03-02T07:42:41.229Z,29.88
2023-03-02T07:46:41.236Z,30.04
2023-03-02T07:50:41.224Z,31.07
2023-03-02T07:54:40.881Z,31.33
2023-03-02T07:58:40.832Z,24.76
2023-03-02T08:02:41.355Z,26.66
2023-03-02T08:06:42.527Z,27.91
2023-03-02T08:10:41.191Z,29.15
2023-03-02T08:14:42.229Z,29.73
2023-03-02T08:18:41.320Z,30.34
2023-03-02T08:22:41.443Z,31.56
2023-03-02T08:26:41.375Z,31.04
2023-03-02T08:30:41.763Z,31.40
2023-03-02T08:34:41.302Z,31.92
2023-03-02T08:38:41.307Z,32.54
2023-03-02T08:42:41.267Z,33.02
2023-03-02T08:46:41.243Z,32.93
2023-03-02T08:50:41.276Z,33.20
2023-03-02T08:54:41.121Z,33.83
2023-03-02T08:58:41.142Z,34.53
2023-03-02T09:02:41.045Z,35.01
2023-03-02T09:06:41.773Z,35.72
2023-03-02T09:10:40.959Z,35.36
2023-03-02T09:14:40.956Z,28.56
2023-03-02T09:18:41.263Z,31.65
2023-03-02T09:22:40.848Z,32.36
2023-03-02T09:26:41.263Z,32.81
2023-03-02T09:30:41.098Z,33.76
2023-03-02T09:34:41.272Z,34.19
2023-03-02T09:38:41.474Z,34.26
2023-03-02T09:42:44.391Z,34.55
2023-03-02T09:46:41.778Z,34.82
2023-03-02T09:50:41.569Z,35.07
2023-03-02T09:54:41.865Z,32.19
2023-03-02T09:58:41.501Z,24.81
2023-03-02T10:02:41.935Z,27.76
2023-03-02T10:06:41.407Z,28.72
2023-03-02T10:10:41.362Z,29.69
2023-03-02T10:14:41.356Z,30.47
2023-03-02T10:18:41.778Z,31.23
2023-03-02T10:22:41.282Z,31.83
2023-03-02T10:26:41.239Z,32.41
2023-03-02T10:30:41.365Z,32.88
2023-03-02T10:34:41.334Z,33.48
2023-03-02T10:38:41.563Z,34.11
2023-03-02T10:42:41.729Z,34.32
2023-03-02T10:46:42.338Z,34.30
2023-03-02T10:50:42.307Z,34.31
2023-03-02T10:54:42.148Z,33.70
2023-03-02T10:58:42.065Z,32.70
2023-03-02T11:02:42.052Z,31.99
2023-03-02T11:06:42.031Z,31.43
2023-03-02T11:10:42.292Z,30.96
2023-03-02T11:14:41.913Z,30.56
2023-03-02T11:18:41.884Z,30.11
2023-03-02T11:22:41.859Z,29.75
2023-03-02T11:26:41.803Z,29.19
2023-03-02T11:30:41.791Z,29.19
2023-03-02T11:34:41.736Z,28.93
2023-03-02T11:38:41.819Z,29.63
2023-03-02T11:42:41.824Z,29.34
2023-03-02T11:46:41.676Z,30.20
2023-03-02T11:50:41.582Z,31.79
2023-03-02T11:54:41.556Z,32.37
2023-03-02T11:58:41.600Z,33.45
2023-03-02T12:02:41.833Z,33.79
2023-03-02T12:06:41.446Z,34.60
2023-03-02T12:10:41.448Z,35.00
2023-03-02T12:14:41.373Z,35.69
2023-03-02T12:18:41.351Z,36.27
2023-03-02T12:22:41.312Z,36.50
2023-03-02T12:26:41.261Z,36.72
2023-03-02T12:30:41.367Z,36.52
2023-03-02T12:34:41.407Z,36.00
2023-03-02T12:38:41.278Z,35.56
2023-03-02T12:42:41.312Z,35.19
2023-03-02T12:46:41.944Z,34.88
2023-03-02T12:50:41.506Z,34.73
2023-03-02T12:54:41.616Z,34.54
2023-03-02T12:58:41.672Z,34.60
2023-03-02T13:02:41.823Z,34.33
2023-03-02T13:06:42.022Z,34.27
2023-03-02T13:10:42.108Z,32.14
2023-03-02T13:14:42.243Z,31.11
2023-03-02T13:18:42.409Z,32.63
2023-03-02T13:22:42.918Z,31.78
2023-03-02T13:26:42.875Z,31.51
2023-03-02T13:30:42.659Z,32.93
2023-03-02T13:34:42.547Z,34.49
2023-03-02T13:38:42.483Z,34.47
2023-03-02T13:42:42.466Z,35.19
2023-03-02T13:46:42.615Z,35.06
2023-03-02T13:50:42.409Z,34.92
2023-03-02T13:54:42.343Z,34.98
2023-03-02T13:58:42.289Z,34.63
2023-03-02T14:02:42.271Z,34.33
2023-03-02T14:06:42.213Z,31.43
2023-03-02T14:10:42.188Z,25.61
2023-03-02T14:14:44.438Z,22.06
2023-03-02T14:18:42.377Z,23.71
2023-03-02T14:22:42.345Z,26.11
2023-03-02T14:26:42.426Z,27.76
2023-03-02T14:30:42.636Z,26.73
2023-03-02T14:34:42.685Z,25.58
2023-03-02T14:38:42.794Z,26.78
2023-03-02T14:42:43.392Z,27.01
2023-03-02T14:46:43.279Z,27.38
2023-03-02T14:50:43.502Z,26.69
2023-03-02T14:54:43.644Z,27.55
2023-03-02T14:58:43.621Z,27.75
2023-03-02T15:02:43.698Z,27.02
2023-03-02T15:06:43.530Z,27.37
2023-03-02T15:10:43.474Z,27.77
2023-03-02T15:14:43.887Z,28.06
2023-03-02T15:18:43.916Z,28.14
2023-03-02T15:22:43.397Z,28.32
2023-03-02T15:26:43.358Z,27.84
2023-03-02T15:30:43.302Z,29.46
2023-03-02T15:34:43.290Z,29.44
2023-03-02T15:38:43.251Z,29.61
2023-03-02T15:42:43.211Z,29.73
2023-03-02T15:46:43.200Z,29.68
2023-03-02T15:50:43.127Z,29.63
2023-03-02T15:54:43.195Z,29.50
2023-03-02T15:58:43.154Z,29.33
2023-03-02T16:02:43.143Z,29.17
2023-03-02T16:06:43.074Z,29.08
2023-03-02T16:10:43.108Z,28.95
2023-03-02T16:14:43.002Z,28.90
2023-03-02T16:18:42.992Z,28.85
2023-03-02T16:22:42.956Z,28.73
2023-03-02T16:26:42.963Z,28.69
2023-03-02T16:30:42.842Z,28.73
2023-03-02T16:34:42.942Z,28.72
2023-03-02T16:38:42.772Z,28.66
2023-03-02T16:42:42.746Z,28.70
2023-03-02T16:46:42.718Z,28.63
2023-03-02T16:50:42.689Z,28.62
2023-03-02T16:54:42.946Z,28.67
2023-03-02T16:58:42.608Z,28.55
2023-03-02T17:02:42.561Z,28.56
2023-03-02T17:06:45.781Z,28.47
2023-03-02T17:10:43.467Z,28.50
2023-03-02T17:14:42.449Z,28.52
2023-03-02T17:18:42.415Z,28.53
2023-03-02T17:22:42.514Z,28.51
2023-03-02T17:26:42.563Z,28.56
2023-03-02T17:30:42.554Z,28.55
2023-03-02T17:34:42.565Z,28.52
2023-03-02T17:38:42.553Z,28.53
2023-03-02T17:42:42.503Z,28.50
2023-03-02T17:46:42.638Z,28.52
2023-03-02T17:50:42.528Z,28.47
2023-03-02T17:54:42.535Z,28.54
2023-03-02T17:58:45.351Z,28.51
2023-03-02T18:02:42.522Z,28.44
2023-03-02T18:06:42.470Z,28.46
2023-03-02T18:10:42.424Z,28.45
2023-03-02T18:14:42.419Z,28.50
2023-03-02T18:18:42.348Z,28.31
2023-03-02T18:22:42.332Z,28.44
2023-03-02T18:26:42.295Z,28.03
2023-03-02T18:30:42.226Z,27.99
2023-03-02T18:34:42.208Z,27.88
2023-03-02T18:38:42.164Z,27.96
2023-03-02T18:42:42.128Z,27.87
2023-03-02T18:46:42.198Z,27.77
2023-03-02T18:50:42.055Z,27.74
2023-03-02T18:54:42.014Z,27.63
2023-03-02T18:58:41.977Z,27.58
2023-03-02T19:02:41.938Z,27.56
2023-03-02T19:06:41.916Z,27.53
2023-03-02T19:10:41.881Z,27.44
2023-03-02T19:14:41.810Z,27.39
2023-03-02T19:18:41.799Z,27.37
2023-03-02T19:22:41.745Z,27.37
2023-03-02T19:26:41.702Z,27.35
2023-03-02T19:30:41.721Z,27.28
2023-03-02T19:34:41.648Z,27.28
2023-03-02T19:38:41.648Z,27.16
2023-03-02T19:42:41.570Z,27.16
2023-03-02T19:46:41.513Z,27.25
2023-03-02T19:50:41.468Z,27.22
2023-03-02T19:54:41.468Z,27.15
2023-03-02T19:58:41.430Z,27.16
2023-03-02T20:02:41.367Z,27.12
2023-03-02T20:06:41.449Z,27.08
2023-03-02T20:10:41.545Z,27.12
2023-03-02T20:14:41.616Z,27.09
2023-03-02T20:18:41.754Z,27.10
2023-03-02T20:22:41.890Z,27.05
2023-03-02T20:26:41.988Z,26.94
2023-03-02T20:30:42.296Z,26.98
2023-03-02T20:34:42.233Z,26.99
2023-03-02T20:38:42.399Z,26.91
2023-03-02T20:42:42.481Z,26.88
2023-03-02T20:46:42.649Z,26.88
2023-03-02T20:50:42.766Z,26.81
2023-03-02T20:54:42.929Z,26.81
2023-03-02T20:58:43.090Z,26.79
2023-03-02T21:02:43.197Z,26.71
2023-03-02T21:06:43.341Z,26.73
2023-03-02T21:10:43.513Z,26.70
2023-03-02T21:14:43.713Z,26.65
2023-03-02T21:18:43.843Z,26.63
2023-03-02T21:22:43.997Z,26.61
2023-03-02T21:26:44.198Z,26.60
2023-03-02T21:30:44.370Z,26.52
2023-03-02T21:34:44.511Z,26.52
2023-03-02T21:38:44.697Z,26.53
2023-03-02T21:42:44.882Z,26.52
2023-03-02T21:46:45.114Z,26.54
2023-03-02T21:50:45.323Z,26.52
2023-03-02T21:54:45.519Z,26.51
2023-03-02T21:58:45.729Z,26.47
2023-03-02T22:02:45.725Z,26.44
2023-03-02T22:06:45.660Z,26.47
2023-03-02T22:10:45.622Z,26.42
2023-03-02T22:14:45.597Z,26.41
2023-03-02T22:18:45.533Z,26.45
2023-03-02T22:22:45.506Z,26.38
2023-03-02T22:26:45.499Z,26.41
2023-03-02T22:30:45.428Z,26.41
2023-03-02T22:34:45.430Z,26.35
2023-03-02T22:38:45.412Z,26.36
2023-03-02T22:42:45.369Z,26.35
2023-03-02T22:46:45.445Z,26.34
2023-03-02T22:50:45.338Z,26.28
2023-03-02T22:54:45.252Z,26.31
2023-03-02T22:58:45.216Z,26.32
2023-03-02T23:02:45.198Z,26.24
2023-03-02T23:06:45.196Z,26.25
2023-03-02T23:10:45.154Z,26.26
2023-03-02T23:14:45.077Z,26.19
2023-03-02T23:18:45.036Z,26.22
2023-03-02T23:22:45.247Z,26.19
2023-03-02T23:26:45.269Z,26.26
2023-03-02T23:30:45.165Z,26.23
2023-03-02T23:34:45.119Z,26.16
2023-03-02T23:38:45.095Z,26.11
2023-03-02T23:42:45.028Z,26.16
2023-03-02T23:46:45.034Z,26.15
2023-03-02T23:50:44.964Z,26.05
2023-03-02T23:54:44.948Z,26.09
2023-03-02T23:58:44.903Z,26.00
